首页
METAR-TAF:

METAR-TAF

机场 :

Warroad International Airport (Swede Carlson Field)

Warroad, 明尼蘇達州, 美国

纬度: 48-56-29N, 经度: 095-20-54W, 海拔: 327米

当前天气观测

该预报发布于29分钟前的21:15 UTC
风速12节,风向西转西北,有时为17节阵风
温度 22°C
湿度 60%
气压 1008 hPa
能見度: 16.1公里
散云层高于5000英尺
多云层高于6500英尺
多云层高于7500英尺

METAR: KRRT 252115Z AUTO 29012G17KT 10SM SCT050 BKN065 BKN075 22/14 A2977 RMK AO2

时间: 16:44 (21:44 UTC)


TAF: 丢失

超过4000个机场的气象观测和天气预报(METAR&TAF报告)。

可查询的气象台以黄色和红色小点在地图上表示。

将鼠标移到小点上方,可查看气象台名称。

然后点击查看天气观测和预报。

如需切换地图:点击带黑十字的绿色按钮放大地图;点击带横线的绿色按钮缩小地图;或者点击绿色箭头查看邻近地区的地图。


METAR-TAF: